createdAt,value
2019-05-30T00:01:34.394Z,1.57
2019-05-30T00:04:04.903Z,2.80
2019-05-30T00:06:34.505Z,1.17
2019-05-30T00:09:08.209Z,3.97
2019-05-30T00:11:37.673Z,1.30
2019-05-30T00:14:07.112Z,2.10
2019-05-30T00:16:38.199Z,2.47
2019-05-30T00:19:07.645Z,2.77
2019-05-30T00:21:37.107Z,1.67
2019-05-30T00:24:06.570Z,5.10
2019-05-30T00:26:36.085Z,2.37
2019-05-30T00:29:06.653Z,1.10
2019-05-30T00:31:36.257Z,1.67
2019-05-30T00:34:07.041Z,1.80
2019-05-30T00:36:36.575Z,2.10
2019-05-30T00:39:07.836Z,5.63
2019-05-30T00:41:37.382Z,2.53
2019-05-30T00:44:06.888Z,1.47
2019-05-30T00:46:36.358Z,0.90
2019-05-30T00:49:06.607Z,2.80
2019-05-30T00:51:36.163Z,1.03
2019-05-30T00:54:06.874Z,3.87
2019-05-30T00:56:36.468Z,3.70
2019-05-30T00:59:07.063Z,4.73
2019-05-30T01:01:36.548Z,2.50
2019-05-30T01:04:06.990Z,3.03
2019-05-30T01:06:36.550Z,3.83
2019-05-30T01:09:07.444Z,2.93
2019-05-30T01:11:37.031Z,2.80
2019-05-30T01:14:07.519Z,4.10
2019-05-30T01:16:38.176Z,2.73
2019-05-30T01:19:07.617Z,2.30
2019-05-30T01:21:38.217Z,1.90
2019-05-30T01:24:08.634Z,3.73
2019-05-30T01:26:38.093Z,3.03
2019-05-30T01:29:07.806Z,2.87
2019-05-30T01:31:37.414Z,3.90
2019-05-30T01:34:07.937Z,3.40
2019-05-30T01:36:37.523Z,4.37
2019-05-30T01:39:08.139Z,1.50
2019-05-30T01:41:37.748Z,2.20
2019-05-30T01:44:08.371Z,1.50
2019-05-30T01:46:37.931Z,4.80
2019-05-30T01:49:08.777Z,4.43
2019-05-30T01:51:38.247Z,5.50
2019-05-30T01:54:08.691Z,2.27
2019-05-30T01:56:38.311Z,3.80
2019-05-30T01:59:08.803Z,1.50
2019-05-30T02:01:38.427Z,2.13
2019-05-30T02:04:09.323Z,7.63
2019-05-30T02:06:38.918Z,5.63
2019-05-30T02:09:10.233Z,4.57
2019-05-30T02:11:39.581Z,4.03
2019-05-30T02:14:09.965Z,5.30
2019-05-30T02:16:39.606Z,4.33
2019-05-30T02:19:10.569Z,3.80
2019-05-30T02:21:40.332Z,1.93
2019-05-30T02:24:12.029Z,3.50
2019-05-30T02:26:41.119Z,5.47
2019-05-30T02:29:11.634Z,5.23
2019-05-30T02:31:41.102Z,3.27
2019-05-30T02:34:12.158Z,3.27
2019-05-30T02:36:41.777Z,2.00
2019-05-30T02:39:11.994Z,4.33
2019-05-30T02:41:41.815Z,2.50
2019-05-30T02:44:12.432Z,3.07
2019-05-30T02:46:42.106Z,2.87
2019-05-30T02:49:13.741Z,3.60
2019-05-30T02:51:42.714Z,4.37
2019-05-30T02:54:13.215Z,2.60
2019-05-30T02:56:43.972Z,3.47
2019-05-30T02:59:13.987Z,3.87
2019-05-30T03:02:00.126Z,4.93
2019-05-30T03:04:14.579Z,2.90
2019-05-30T03:06:44.268Z,3.73
2019-05-30T03:09:13.737Z,3.13
2019-05-30T03:11:43.292Z,4.30
2019-05-30T03:14:19.135Z,4.80
2019-05-30T03:16:45.022Z,7.23
2019-05-30T03:19:14.559Z,4.07
2019-05-30T03:21:44.081Z,8.37
2019-05-30T03:24:14.331Z,5.30
2019-05-30T03:26:44.018Z,5.97
2019-05-30T03:29:14.397Z,7.20
2019-05-30T03:31:46.643Z,3.60
2019-05-30T03:34:26.183Z,4.37
2019-05-30T03:36:47.334Z,5.43
2019-05-30T03:39:16.850Z,6.53
2019-05-30T03:41:46.294Z,4.37
2019-05-30T03:44:16.004Z,7.53
2019-05-30T03:46:51.234Z,5.47
2019-05-30T03:49:23.772Z,3.07
2019-05-30T03:51:55.424Z,3.77
2019-05-30T03:54:26.410Z,3.30
2019-05-30T03:56:58.938Z,6.10
2019-05-30T03:59:31.487Z,5.00
2019-05-30T04:02:13.984Z,6.77
2019-05-30T04:04:46.962Z,3.17
2019-05-30T04:07:19.658Z,3.87
2019-05-30T04:09:51.970Z,3.77
2019-05-30T04:12:27.795Z,4.03
2019-05-30T04:15:02.855Z,8.63
2019-05-30T04:17:32.302Z,4.80
2019-05-30T04:20:01.767Z,4.87
2019-05-30T04:22:31.284Z,5.53
2019-05-30T04:25:00.755Z,4.70
2019-05-30T04:27:30.205Z,7.13
2019-05-30T04:29:59.678Z,4.60
2019-05-30T04:32:29.113Z,5.33
2019-05-30T04:34:58.583Z,5.17
2019-05-30T04:37:28.025Z,4.40
2019-05-30T04:39:57.486Z,4.50
2019-05-30T04:42:26.946Z,4.27
2019-05-30T04:44:56.398Z,3.07
2019-05-30T04:47:25.850Z,4.67
2019-05-30T04:49:55.324Z,4.50
2019-05-30T04:52:25.170Z,6.50
2019-05-30T04:54:54.733Z,3.40
2019-05-30T04:57:26.981Z,4.40
2019-05-30T04:59:55.270Z,5.27
2019-05-30T05:02:25.074Z,5.20
2019-05-30T05:04:54.662Z,3.60
2019-05-30T05:07:24.139Z,4.83
2019-05-30T05:09:53.659Z,4.80
2019-05-30T05:12:23.461Z,3.87
2019-05-30T05:14:53.331Z,4.83
2019-05-30T05:17:23.191Z,6.27
2019-05-30T05:19:52.749Z,3.17
2019-05-30T05:22:23.235Z,7.40
2019-05-30T05:24:52.874Z,5.00
2019-05-30T05:27:22.313Z,8.33
2019-05-30T05:29:51.781Z,4.27
2019-05-30T05:32:22.556Z,4.20
2019-05-30T05:34:52.293Z,5.93
2019-05-30T05:37:21.759Z,4.27
2019-05-30T05:39:52.701Z,2.83
2019-05-30T05:42:22.603Z,5.13
2019-05-30T05:44:52.506Z,4.77
2019-05-30T05:47:22.811Z,6.57
2019-05-30T05:49:52.325Z,4.60
2019-05-30T05:52:22.740Z,3.27
2019-05-30T05:54:52.241Z,4.90
2019-05-30T05:57:22.850Z,4.77
2019-05-30T05:59:52.433Z,4.27
2019-05-30T06:02:23.135Z,4.17
2019-05-30T06:04:52.751Z,3.50
2019-05-30T06:07:22.465Z,4.20
2019-05-30T06:09:53.046Z,5.03
2019-05-30T06:12:23.710Z,4.67
2019-05-30T06:14:54.334Z,7.63
2019-05-30T06:17:24.919Z,2.70
2019-05-30T06:19:54.542Z,4.92
2019-05-30T06:22:24.001Z,9.87
2019-05-30T06:24:53.462Z,4.27
2019-05-30T06:27:23.916Z,5.25
2019-05-30T06:29:53.569Z,5.70
2019-05-30T06:32:23.054Z,4.15
2019-05-30T06:34:52.511Z,3.27
2019-05-30T06:37:23.179Z,6.10
2019-05-30T06:39:52.700Z,3.50
2019-05-30T06:42:22.145Z,2.60
2019-05-30T06:44:51.613Z,3.02
2019-05-30T06:47:22.110Z,6.75
2019-05-30T06:49:51.739Z,6.45
2019-05-30T06:52:21.186Z,2.70
2019-05-30T06:54:50.726Z,2.90
2019-05-30T06:57:21.111Z,2.92
2019-05-30T06:59:50.711Z,6.72
2019-05-30T07:02:20.164Z,6.25
2019-05-30T07:04:52.099Z,3.27
2019-05-30T07:07:20.810Z,6.80
2019-05-30T07:09:50.479Z,4.12
2019-05-30T07:12:19.929Z,3.50
2019-05-30T07:14:49.373Z,5.60
2019-05-30T07:17:18.848Z,9.30
2019-05-30T07:19:48.366Z,7.97
2019-05-30T07:22:17.830Z,3.08
2019-05-30T07:24:47.275Z,6.42
2019-05-30T07:27:16.818Z,13.93
2019-05-30T07:29:46.270Z,4.37
2019-05-30T07:32:15.733Z,6.35
2019-05-30T07:34:46.154Z,6.65
2019-05-30T07:37:15.760Z,6.58
2019-05-30T07:39:45.218Z,6.17
2019-05-30T07:42:14.666Z,3.30
2019-05-30T07:44:44.109Z,6.55
2019-05-30T07:47:13.578Z,13.22
2019-05-30T07:49:43.023Z,9.30
2019-05-30T07:52:12.490Z,5.90
2019-05-30T07:54:41.936Z,7.67
2019-05-30T07:57:11.402Z,7.87
2019-05-30T07:59:40.850Z,6.17
2019-05-30T08:02:10.321Z,2.60
2019-05-30T08:04:39.771Z,5.72
2019-05-30T08:07:09.240Z,6.17
2019-05-30T08:09:39.300Z,2.90
2019-05-30T08:12:08.750Z,5.12
2019-05-30T08:14:38.193Z,3.52
2019-05-30T08:17:07.672Z,3.33
2019-05-30T08:19:38.175Z,6.40
2019-05-30T08:22:07.987Z,5.50
2019-05-30T08:24:38.615Z,4.75
2019-05-30T08:27:08.411Z,7.50
2019-05-30T08:29:38.567Z,4.15
2019-05-30T08:32:08.123Z,5.90
2019-05-30T08:34:38.739Z,10.63
2019-05-30T08:37:08.426Z,10.30
2019-05-30T08:39:37.857Z,5.42
2019-05-30T08:42:07.330Z,4.87
2019-05-30T08:44:37.897Z,10.72
2019-05-30T08:47:07.535Z,10.15
2019-05-30T08:49:38.174Z,9.30
2019-05-30T08:52:07.745Z,5.33
2019-05-30T08:54:38.442Z,11.25
2019-05-30T08:57:08.234Z,3.75
2019-05-30T08:59:38.631Z,7.53
2019-05-30T09:02:09.314Z,3.33
2019-05-30T09:04:39.929Z,7.08
2019-05-30T09:07:09.398Z,3.15
2019-05-30T09:09:40.063Z,6.90
2019-05-30T09:12:09.611Z,9.60
2019-05-30T09:14:39.624Z,5.22
2019-05-30T09:17:10.146Z,3.67
2019-05-30T09:19:40.361Z,5.08
2019-05-30T09:22:10.682Z,7.85
2019-05-30T09:24:40.509Z,6.42
2019-05-30T09:27:10.575Z,5.75
2019-05-30T09:29:41.668Z,4.70
2019-05-30T09:32:11.106Z,6.87
2019-05-30T09:34:42.025Z,3.85
2019-05-30T09:37:11.638Z,5.15
2019-05-30T09:39:41.576Z,9.58
2019-05-30T09:42:11.163Z,4.58
2019-05-30T09:44:41.927Z,7.25
2019-05-30T09:47:11.748Z,9.90
2019-05-30T09:49:41.861Z,7.53
2019-05-30T09:52:12.296Z,5.40
2019-05-30T09:54:42.996Z,2.25
2019-05-30T09:57:12.837Z,8.50
2019-05-30T09:59:43.579Z,3.60
2019-05-30T10:02:13.378Z,4.33
2019-05-30T10:04:45.139Z,5.50
2019-05-30T10:07:14.886Z,3.08
2019-05-30T10:09:45.629Z,12.10
2019-05-30T10:12:15.586Z,3.87
2019-05-30T10:14:45.641Z,6.70
2019-05-30T10:17:16.123Z,4.37
2019-05-30T10:19:47.050Z,5.78
2019-05-30T10:22:16.721Z,2.42
2019-05-30T10:24:47.528Z,4.15
2019-05-30T10:27:17.057Z,5.67
2019-05-30T10:29:47.694Z,2.85
2019-05-30T10:32:17.106Z,6.17
2019-05-30T10:34:47.864Z,7.25
2019-05-30T10:37:17.518Z,4.78
2019-05-30T10:39:47.280Z,7.30
2019-05-30T10:42:17.073Z,4.78
2019-05-30T10:44:48.288Z,3.77
2019-05-30T10:47:17.838Z,4.25
2019-05-30T10:49:48.571Z,3.65
2019-05-30T10:52:18.366Z,6.50
2019-05-30T10:54:47.965Z,2.80
2019-05-30T10:57:17.377Z,3.50
2019-05-30T10:59:47.835Z,5.42
2019-05-30T11:02:17.913Z,5.85
2019-05-30T11:04:48.941Z,7.33
2019-05-30T11:07:30.700Z,5.80
2019-05-30T11:10:08.747Z,3.67
2019-05-30T11:12:38.196Z,3.72
2019-05-30T11:15:08.101Z,5.90
2019-05-30T11:17:37.551Z,6.45
2019-05-30T11:20:07.442Z,3.92
2019-05-30T11:22:36.885Z,4.47
2019-05-30T11:25:06.593Z,2.47
2019-05-30T11:27:36.041Z,2.77
2019-05-30T11:30:08.665Z,2.42
2019-05-30T11:32:38.114Z,4.37
2019-05-30T11:35:07.751Z,6.05
2019-05-30T11:37:37.198Z,6.35
2019-05-30T11:40:08.269Z,3.50
2019-05-30T11:42:37.709Z,3.30
2019-05-30T11:45:07.814Z,4.40
2019-05-30T11:47:37.270Z,3.05
2019-05-30T11:50:07.597Z,5.30
2019-05-30T11:52:37.022Z,4.58
2019-05-30T11:55:07.435Z,3.12
2019-05-30T11:57:36.877Z,4.37
2019-05-30T12:00:08.326Z,5.67
2019-05-30T12:02:37.763Z,4.45
2019-05-30T12:05:07.969Z,4.42
2019-05-30T12:07:37.416Z,4.30
2019-05-30T12:10:08.123Z,8.53
2019-05-30T12:12:37.642Z,6.12
2019-05-30T12:15:10.272Z,3.62
2019-05-30T12:17:39.719Z,3.70
2019-05-30T12:20:09.829Z,5.53
2019-05-30T12:22:39.274Z,5.10
2019-05-30T12:25:08.877Z,3.85
2019-05-30T12:27:38.324Z,6.87
2019-05-30T12:30:09.932Z,7.03
2019-05-30T12:32:39.382Z,4.12
2019-05-30T12:35:10.664Z,4.42
2019-05-30T12:37:54.072Z,5.60
2019-05-30T12:40:13.109Z,6.70
2019-05-30T12:42:42.562Z,5.45
2019-05-30T12:45:12.762Z,5.97
2019-05-30T12:47:42.221Z,4.47
2019-05-30T12:50:12.426Z,8.48
2019-05-30T12:52:41.874Z,7.58
2019-05-30T12:55:11.483Z,6.87
2019-05-30T12:57:40.930Z,6.35
2019-05-30T13:00:17.989Z,3.58
2019-05-30T13:02:44.419Z,5.62
2019-05-30T13:05:14.414Z,6.22
2019-05-30T13:07:43.871Z,7.53
2019-05-30T13:10:13.981Z,6.03
2019-05-30T13:12:43.443Z,10.50
2019-05-30T13:15:13.536Z,7.20
2019-05-30T13:17:43.152Z,6.47
2019-05-30T13:20:14.462Z,8.90
2019-05-30T13:22:44.057Z,11.33
2019-05-30T13:25:16.359Z,9.20
2019-05-30T13:27:46.878Z,9.45
2019-05-30T13:30:16.886Z,9.45
2019-05-30T13:32:46.333Z,7.42
2019-05-30T13:35:16.043Z,7.20
2019-05-30T13:37:45.481Z,6.42
2019-05-30T13:40:24.777Z,6.37
2019-05-30T13:42:46.518Z,7.65
2019-05-30T13:45:16.057Z,9.40
2019-05-30T13:47:45.571Z,11.70
2019-05-30T13:50:16.633Z,12.37
2019-05-30T13:52:46.077Z,12.73
2019-05-30T13:55:15.997Z,15.23
2019-05-30T13:57:45.451Z,17.55
2019-05-30T14:00:16.525Z,12.65
2019-05-30T14:02:45.980Z,13.70
2019-05-30T14:05:16.161Z,13.20
2019-05-30T14:07:45.674Z,14.38
2019-05-30T14:10:16.260Z,17.02
2019-05-30T14:12:45.773Z,13.75
2019-05-30T14:15:15.881Z,16.20
2019-05-30T14:17:45.602Z,12.73
2019-05-30T14:20:15.819Z,15.20
2019-05-30T14:22:45.266Z,12.30
2019-05-30T14:25:17.653Z,13.93
2019-05-30T14:27:47.097Z,12.20
2019-05-30T14:30:16.910Z,12.90
2019-05-30T14:32:46.359Z,10.18
2019-05-30T14:35:15.957Z,12.53
2019-05-30T14:37:45.411Z,12.95
2019-05-30T14:40:16.026Z,11.20
2019-05-30T14:42:45.485Z,14.45
2019-05-30T14:45:17.062Z,12.55
2019-05-30T14:47:46.545Z,13.50
2019-05-30T14:50:22.698Z,13.62
2019-05-30T14:52:52.212Z,14.38
2019-05-30T14:55:21.749Z,12.80
2019-05-30T14:57:51.229Z,12.78
2019-05-30T15:00:21.022Z,12.07
2019-05-30T15:02:50.558Z,12.93
2019-05-30T15:05:20.073Z,12.60
2019-05-30T15:07:49.558Z,10.48
2019-05-30T15:10:19.143Z,14.85
2019-05-30T15:12:48.615Z,13.90
2019-05-30T15:15:18.880Z,12.50
2019-05-30T15:17:48.381Z,11.68
2019-05-30T15:20:18.304Z,10.60
2019-05-30T15:22:47.789Z,14.45
2019-05-30T15:25:18.774Z,12.45
2019-05-30T15:27:48.252Z,12.15
2019-05-30T15:30:18.036Z,13.85
2019-05-30T15:32:47.509Z,12.10
2019-05-30T15:35:19.089Z,16.32
2019-05-30T15:37:48.790Z,17.12
2019-05-30T15:40:18.482Z,17.02
2019-05-30T15:42:47.950Z,14.58
2019-05-30T15:45:18.237Z,14.15
2019-05-30T15:47:47.826Z,14.75
2019-05-30T15:50:18.763Z,12.35
2019-05-30T15:52:48.499Z,16.25
2019-05-30T15:55:19.264Z,15.15
2019-05-30T15:57:49.097Z,16.73
2019-05-30T16:00:19.978Z,17.65
2019-05-30T16:02:49.472Z,20.25
2019-05-30T16:05:19.171Z,19.65
2019-05-30T16:07:48.641Z,23.40
2019-05-30T16:10:18.986Z,20.00
2019-05-30T16:12:48.513Z,19.75
2019-05-30T16:15:19.493Z,20.48
2019-05-30T16:17:49.082Z,20.70
2019-05-30T16:20:19.989Z,21.52
2019-05-30T16:22:49.556Z,21.65
2019-05-30T16:25:19.676Z,23.25
2019-05-30T16:27:49.254Z,19.07
2019-05-30T16:30:23.520Z,18.57
2019-05-30T16:32:50.010Z,20.75
2019-05-30T16:35:20.190Z,20.80
2019-05-30T16:37:49.713Z,18.75
2019-05-30T16:40:20.247Z,19.55
2019-05-30T16:42:49.902Z,17.85
2019-05-30T16:45:22.244Z,17.05
2019-05-30T16:47:50.638Z,17.02
2019-05-30T16:50:23.374Z,24.23
2019-05-30T16:52:53.913Z,19.95
2019-05-30T16:55:23.575Z,16.42
2019-05-30T16:57:52.995Z,16.87
2019-05-30T17:00:23.769Z,15.20
2019-05-30T17:02:53.297Z,17.62
2019-05-30T17:05:22.753Z,14.13
2019-05-30T17:07:52.232Z,17.50
2019-05-30T17:10:28.778Z,18.07
2019-05-30T17:12:53.127Z,16.00
2019-05-30T17:15:23.900Z,13.55
2019-05-30T17:17:53.526Z,13.03
2019-05-30T17:20:23.113Z,16.75
2019-05-30T17:22:52.588Z,13.68
2019-05-30T17:25:23.030Z,14.85
2019-05-30T17:27:52.958Z,14.15
2019-05-30T17:30:23.685Z,13.40
2019-05-30T17:32:54.382Z,12.90
2019-05-30T17:35:24.163Z,14.25
2019-05-30T17:37:53.602Z,11.45
2019-05-30T17:40:40.210Z,14.25
2019-05-30T17:42:54.289Z,12.78
2019-05-30T17:45:25.145Z,16.57
2019-05-30T17:48:02.807Z,17.37
2019-05-30T17:50:25.903Z,14.58
2019-05-30T17:52:55.372Z,17.55
2019-05-30T17:55:25.915Z,19.45
2019-05-30T17:57:55.501Z,16.12
2019-05-30T18:00:26.115Z,19.85
2019-05-30T18:02:56.210Z,15.13
2019-05-30T18:05:26.733Z,16.25
2019-05-30T18:07:56.399Z,17.48
2019-05-30T18:10:26.864Z,16.17
2019-05-30T18:12:56.499Z,16.80
2019-05-30T18:15:28.027Z,16.52
2019-05-30T18:17:57.206Z,21.48
2019-05-30T18:20:27.358Z,18.50
2019-05-30T18:22:56.991Z,17.07
2019-05-30T18:25:27.577Z,18.20
2019-05-30T18:27:57.130Z,21.17
2019-05-30T18:30:41.474Z,16.85
2019-05-30T18:33:11.183Z,16.57
2019-05-30T18:35:40.778Z,17.02
2019-05-30T18:38:10.326Z,20.75
2019-05-30T18:40:39.848Z,16.25
2019-05-30T18:43:09.295Z,16.23
2019-05-30T18:45:41.170Z,12.30
2019-05-30T18:48:11.351Z,15.25
2019-05-30T18:50:41.066Z,11.28
2019-05-30T18:53:10.578Z,9.55
2019-05-30T18:55:40.121Z,12.10
2019-05-30T18:58:10.992Z,9.30
2019-05-30T19:00:43.862Z,10.80
2019-05-30T19:03:13.921Z,11.15
2019-05-30T19:05:48.696Z,11.93
2019-05-30T19:08:15.045Z,10.80
2019-05-30T19:10:44.568Z,10.58
2019-05-30T19:13:14.089Z,11.68
2019-05-30T19:15:43.629Z,13.15
2019-05-30T19:18:14.130Z,10.03
2019-05-30T19:20:43.606Z,9.98
2019-05-30T19:23:13.054Z,13.80
2019-05-30T19:25:43.562Z,13.08
2019-05-30T19:28:13.078Z,11.65
2019-05-30T19:30:42.556Z,13.85
2019-05-30T19:33:12.014Z,13.80
2019-05-30T19:35:41.478Z,13.25
2019-05-30T19:38:10.927Z,13.22
2019-05-30T19:40:41.472Z,16.35
2019-05-30T19:43:12.006Z,12.80
2019-05-30T19:45:41.478Z,13.25
2019-05-30T19:48:10.947Z,14.98
2019-05-30T19:50:40.408Z,13.70
2019-05-30T19:53:09.866Z,14.20
2019-05-30T19:55:39.527Z,16.60
2019-05-30T19:58:09.077Z,21.02
2019-05-30T20:00:55.580Z,16.97
2019-05-30T20:03:09.638Z,17.10
2019-05-30T20:05:39.170Z,15.60
2019-05-30T20:08:08.699Z,21.70
2019-05-30T20:10:39.134Z,17.83
2019-05-30T20:13:08.730Z,22.07
2019-05-30T20:15:39.564Z,17.63
2019-05-30T20:18:09.139Z,17.37
2019-05-30T20:20:56.220Z,20.23
2019-05-30T20:23:09.717Z,16.93
2019-05-30T20:25:42.467Z,16.75
2019-05-30T20:28:10.343Z,15.83
2019-05-30T20:30:39.805Z,17.48
2019-05-30T20:33:09.331Z,23.05
2019-05-30T20:35:40.058Z,18.42
2019-05-30T20:38:10.990Z,19.90
2019-05-30T20:40:40.944Z,20.63
2019-05-30T20:43:11.506Z,18.43
2019-05-30T20:45:47.031Z,24.23
2019-05-30T20:48:12.050Z,19.17
2019-05-30T20:50:41.533Z,20.80
2019-05-30T20:53:11.051Z,17.98
2019-05-30T20:55:40.526Z,18.93
2019-05-30T20:58:09.991Z,19.02
2019-05-30T21:00:40.492Z,20.97
2019-05-30T21:03:11.165Z,23.15
2019-05-30T21:05:41.990Z,20.87
2019-05-30T21:08:12.610Z,25.07
2019-05-30T21:10:43.628Z,21.67
2019-05-30T21:13:13.073Z,19.67
2019-05-30T21:15:44.089Z,22.80
2019-05-30T21:18:13.541Z,20.57
2019-05-30T21:20:44.080Z,23.70
2019-05-30T21:23:13.574Z,28.67
2019-05-30T21:25:43.199Z,25.68
2019-05-30T21:28:12.607Z,26.67
2019-05-30T21:30:43.267Z,21.60
2019-05-30T21:33:12.905Z,24.30
2019-05-30T21:35:43.768Z,19.67
2019-05-30T21:38:13.326Z,17.67
2019-05-30T21:40:42.797Z,22.45
2019-05-30T21:43:12.258Z,19.87
2019-05-30T21:45:42.540Z,21.07
2019-05-30T21:48:12.089Z,21.55
2019-05-30T21:50:44.466Z,20.80
2019-05-30T21:53:12.710Z,27.85
2019-05-30T21:55:42.189Z,35.95
2019-05-30T21:58:11.638Z,73.20
2019-05-30T22:00:50.853Z,72.67
2019-05-30T22:03:22.176Z,57.13
2019-05-30T22:05:52.075Z,52.70
2019-05-30T22:08:21.707Z,30.68
2019-05-30T22:10:51.771Z,39.23
2019-05-30T22:13:21.405Z,37.15
2019-05-30T22:15:52.171Z,45.40
2019-05-30T22:18:21.765Z,40.80
2019-05-30T22:20:52.122Z,46.77
2019-05-30T22:23:22.757Z,63.80
2019-05-30T22:25:53.040Z,52.90
2019-05-30T22:28:22.556Z,49.77
2019-05-30T22:30:52.840Z,33.13
2019-05-30T22:33:22.302Z,35.10
2019-05-30T22:35:51.774Z,36.70
2019-05-30T22:38:21.244Z,29.70
2019-05-30T22:40:51.982Z,28.47
2019-05-30T22:43:25.395Z,26.02
2019-05-30T22:45:52.567Z,29.67
2019-05-30T22:48:22.099Z,27.97
2019-05-30T22:50:52.789Z,24.47
2019-05-30T22:53:23.508Z,22.55
2019-05-30T22:55:53.605Z,23.00
2019-05-30T22:58:23.233Z,22.95
2019-05-30T23:00:54.000Z,21.63
2019-05-30T23:03:23.564Z,21.33
2019-05-30T23:05:53.298Z,22.57
2019-05-30T23:08:22.894Z,22.65
2019-05-30T23:10:52.353Z,21.25
2019-05-30T23:13:22.003Z,21.43
2019-05-30T23:15:52.715Z,20.85
2019-05-30T23:18:22.383Z,21.20
2019-05-30T23:20:52.750Z,19.55
2019-05-30T23:23:22.317Z,19.10
2019-05-30T23:25:53.340Z,18.30
2019-05-30T23:28:23.897Z,17.27
2019-05-30T23:30:53.946Z,18.20
2019-05-30T23:33:23.429Z,18.35
2019-05-30T23:35:52.884Z,16.93
2019-05-30T23:38:22.362Z,16.87
2019-05-30T23:40:52.870Z,17.98
2019-05-30T23:43:22.593Z,19.45
2019-05-30T23:45:53.238Z,14.53
2019-05-30T23:48:22.923Z,16.55
2019-05-30T23:50:52.371Z,17.67
2019-05-30T23:53:21.841Z,19.45
2019-05-30T23:55:52.248Z,17.20
2019-05-30T23:58:21.785Z,17.20
